createdAt,value
2024-01-15T00:01:03.138Z,71.76
2024-01-15T00:03:51.714Z,71.65
2024-01-15T00:06:20.404Z,71.52
2024-01-15T00:08:48.743Z,71.24
2024-01-15T00:11:17.221Z,70.93
2024-01-15T00:13:45.565Z,70.77
2024-01-15T00:16:13.897Z,70.44
2024-01-15T00:18:42.430Z,70.25
2024-01-15T00:21:11.357Z,69.89
2024-01-15T00:23:44.778Z,69.78
2024-01-15T00:26:13.973Z,69.61
2024-01-15T00:28:42.318Z,68.93
2024-01-15T00:31:10.987Z,68.79
2024-01-15T00:33:39.778Z,68.72
2024-01-15T00:36:08.435Z,68.92
2024-01-15T00:38:36.953Z,68.91
2024-01-15T00:41:05.297Z,68.89
2024-01-15T00:43:33.570Z,68.83
2024-01-15T00:46:05.130Z,68.71
2024-01-15T00:48:33.916Z,68.82
2024-01-15T00:51:02.407Z,68.95
2024-01-15T00:53:30.830Z,69.01
2024-01-15T00:55:59.209Z,68.99
2024-01-15T00:58:28.190Z,69.08
2024-01-15T01:00:56.698Z,69.04
2024-01-15T01:03:25.229Z,69.22
2024-01-15T01:05:53.695Z,69.22
2024-01-15T01:08:22.020Z,69.32
2024-01-15T01:10:50.227Z,69.14
2024-01-15T01:13:18.753Z,68.92
2024-01-15T01:15:47.110Z,68.69
2024-01-15T01:18:15.741Z,68.44
2024-01-15T01:20:44.333Z,68.39
2024-01-15T01:23:12.987Z,68.38
2024-01-15T01:25:41.347Z,68.31
2024-01-15T01:28:10.542Z,68.43
2024-01-15T01:30:39.164Z,68.41
2024-01-15T01:33:07.635Z,68.11
2024-01-15T01:35:36.079Z,67.77
2024-01-15T01:38:04.717Z,67.85
2024-01-15T01:40:33.260Z,67.80
2024-01-15T01:43:01.552Z,67.78
2024-01-15T01:45:29.919Z,67.86
2024-01-15T01:47:58.747Z,67.79
2024-01-15T01:50:27.203Z,67.80
2024-01-15T01:52:55.498Z,67.79
2024-01-15T01:55:27.764Z,67.89
2024-01-15T01:57:56.725Z,68.00
2024-01-15T02:00:25.536Z,68.06
2024-01-15T02:02:53.911Z,68.09
2024-01-15T02:05:23.826Z,68.18
2024-01-15T02:07:52.335Z,68.38
2024-01-15T02:10:20.651Z,68.69
2024-01-15T02:12:49.945Z,69.02
2024-01-15T02:15:18.590Z,69.42
2024-01-15T02:18:04.859Z,69.92
2024-01-15T02:20:33.530Z,70.37
2024-01-15T02:23:14.502Z,71.00
2024-01-15T02:25:47.445Z,71.13
2024-01-15T02:28:19.177Z,71.36
2024-01-15T02:30:48.095Z,71.63
2024-01-15T02:33:16.768Z,71.79
2024-01-15T02:35:47.469Z,72.14
2024-01-15T02:38:15.759Z,72.29
2024-01-15T02:40:46.355Z,72.46
2024-01-15T02:43:15.218Z,72.59
2024-01-15T02:45:43.458Z,72.77
2024-01-15T02:48:11.997Z,72.83
2024-01-15T02:50:40.386Z,72.99
2024-01-15T02:53:09.032Z,73.05
2024-01-15T02:55:37.392Z,73.19
2024-01-15T02:58:05.707Z,73.34
2024-01-15T03:00:34.080Z,73.44
2024-01-15T03:03:02.454Z,73.82
2024-01-15T03:05:30.712Z,74.22
2024-01-15T03:07:59.341Z,74.38
2024-01-15T03:10:27.850Z,74.50
2024-01-15T03:12:56.175Z,74.55
2024-01-15T03:15:24.777Z,74.90
2024-01-15T03:17:53.330Z,75.12
2024-01-15T03:20:21.733Z,75.49
2024-01-15T03:22:50.433Z,75.59
2024-01-15T03:25:18.644Z,75.82
2024-01-15T03:27:47.163Z,76.14
2024-01-15T03:30:15.672Z,76.23
2024-01-15T03:32:44.379Z,76.37
2024-01-15T03:35:12.837Z,76.42
2024-01-15T03:37:41.271Z,76.46
2024-01-15T03:40:10.440Z,76.72
2024-01-15T03:42:38.758Z,76.80
2024-01-15T03:45:07.380Z,76.86
2024-01-15T03:47:35.716Z,77.25
2024-01-15T03:50:04.271Z,77.41
2024-01-15T03:52:32.608Z,77.51
2024-01-15T03:55:00.985Z,77.60
2024-01-15T03:57:29.498Z,77.70
2024-01-15T03:59:57.777Z,77.89
2024-01-15T04:02:26.153Z,77.87
2024-01-15T04:04:54.408Z,78.06
2024-01-15T04:07:22.749Z,78.18
2024-01-15T04:09:51.116Z,78.36
2024-01-15T04:12:19.589Z,78.52
2024-01-15T04:14:47.867Z,78.42
2024-01-15T04:17:16.168Z,78.22
2024-01-15T04:19:49.285Z,78.41
2024-01-15T04:22:17.854Z,78.46
2024-01-15T04:24:46.378Z,78.54
2024-01-15T04:27:15.128Z,78.54
2024-01-15T04:29:45.663Z,78.51
2024-01-15T04:32:14.041Z,78.49
2024-01-15T04:34:45.297Z,78.61
2024-01-15T04:37:15.217Z,78.78
2024-01-15T04:39:43.492Z,78.75
2024-01-15T04:42:11.832Z,78.65
2024-01-15T04:44:40.416Z,78.80
2024-01-15T04:47:08.715Z,78.81
2024-01-15T04:49:37.024Z,78.80
2024-01-15T04:52:05.769Z,78.79
2024-01-15T04:54:34.080Z,78.84
2024-01-15T04:57:02.378Z,78.77
2024-01-15T04:59:30.597Z,78.77
2024-01-15T05:01:58.972Z,78.86
2024-01-15T05:04:27.391Z,78.89
2024-01-15T05:06:56.650Z,78.94
2024-01-15T05:09:25.287Z,78.79
2024-01-15T05:11:53.620Z,78.73
2024-01-15T05:14:21.893Z,78.67
2024-01-15T05:16:50.935Z,78.44
2024-01-15T05:19:19.885Z,78.44
2024-01-15T05:21:48.706Z,78.26
2024-01-15T05:24:17.142Z,77.52
2024-01-15T05:26:45.659Z,76.96
2024-01-15T05:29:14.327Z,76.62
2024-01-15T05:31:43.383Z,75.83
2024-01-15T05:34:12.952Z,75.50
2024-01-15T05:36:41.305Z,75.45
2024-01-15T05:39:09.884Z,75.26
2024-01-15T05:41:39.051Z,75.26
2024-01-15T05:44:07.644Z,75.11
2024-01-15T05:46:35.925Z,75.03
2024-01-15T05:49:04.373Z,74.83
2024-01-15T05:51:32.833Z,74.24
2024-01-15T05:54:01.088Z,73.92
2024-01-15T05:56:29.417Z,73.41
2024-01-15T05:58:57.885Z,73.28
2024-01-15T06:01:26.588Z,73.09
2024-01-15T06:03:55.018Z,72.93
2024-01-15T06:06:23.681Z,72.73
2024-01-15T06:08:51.935Z,72.69
2024-01-15T06:11:20.252Z,72.28
2024-01-15T06:13:48.469Z,72.11
2024-01-15T06:16:23.826Z,71.36
2024-01-15T06:18:52.197Z,70.62
2024-01-15T06:21:21.319Z,70.40
2024-01-15T06:23:49.815Z,70.54
2024-01-15T06:26:18.166Z,70.69
2024-01-15T06:28:46.584Z,70.65
2024-01-15T06:31:15.097Z,70.46
2024-01-15T06:33:44.116Z,70.22
2024-01-15T06:36:12.806Z,70.25
2024-01-15T06:38:41.271Z,70.25
2024-01-15T06:41:09.655Z,70.12
2024-01-15T06:43:38.093Z,70.09
2024-01-15T06:46:07.968Z,70.03
2024-01-15T06:48:37.220Z,69.92
2024-01-15T06:51:05.894Z,70.00
2024-01-15T06:53:34.148Z,70.23
2024-01-15T06:56:02.498Z,70.07
2024-01-15T06:58:32.345Z,70.13
2024-01-15T07:01:01.484Z,70.26
2024-01-15T07:03:30.155Z,70.46
2024-01-15T07:05:58.791Z,70.71
2024-01-15T07:08:27.904Z,70.96
2024-01-15T07:10:56.136Z,71.31
2024-01-15T07:13:24.509Z,71.49
2024-01-15T07:15:53.122Z,71.68
2024-01-15T07:18:21.713Z,71.70
2024-01-15T07:20:50.296Z,71.85
2024-01-15T07:23:18.745Z,72.23
2024-01-15T07:25:47.125Z,72.72
2024-01-15T07:28:15.476Z,73.20
2024-01-15T07:30:44.093Z,73.52
2024-01-15T07:33:13.703Z,73.60
2024-01-15T07:35:42.585Z,73.76
2024-01-15T07:38:12.974Z,73.71
2024-01-15T07:40:41.887Z,73.59
2024-01-15T07:43:10.643Z,73.53
2024-01-15T07:45:43.778Z,73.47
2024-01-15T07:48:21.660Z,73.37
2024-01-15T07:50:50.172Z,73.35
2024-01-15T07:53:18.641Z,73.33
2024-01-15T07:55:47.271Z,73.37
2024-01-15T07:58:17.007Z,73.45
2024-01-15T08:00:45.927Z,73.24
2024-01-15T08:03:14.598Z,71.92
2024-01-15T08:05:43.553Z,70.19
2024-01-15T08:08:12.673Z,68.03
2024-01-15T08:10:41.002Z,67.61
2024-01-15T08:13:10.628Z,66.98
2024-01-15T08:15:39.242Z,65.62
2024-01-15T08:18:07.771Z,64.91
2024-01-15T08:20:36.421Z,65.11
2024-01-15T08:23:05.852Z,65.68
2024-01-15T08:25:34.117Z,66.49
2024-01-15T08:28:02.470Z,66.89
2024-01-15T08:30:30.908Z,67.08
2024-01-15T08:33:04.768Z,66.53
2024-01-15T08:35:37.081Z,63.14
2024-01-15T08:38:05.347Z,59.31
2024-01-15T08:40:33.720Z,57.27
2024-01-15T08:43:03.287Z,55.34
2024-01-15T08:45:32.397Z,54.26
2024-01-15T08:48:02.449Z,54.32
2024-01-15T08:50:30.892Z,56.13
2024-01-15T08:52:59.743Z,58.38
2024-01-15T08:55:28.262Z,60.14
2024-01-15T08:57:56.739Z,62.41
2024-01-15T09:00:25.115Z,64.45
2024-01-15T09:02:53.451Z,65.89
2024-01-15T09:05:22.806Z,66.69
2024-01-15T09:07:53.273Z,67.49
2024-01-15T09:10:21.752Z,68.30
2024-01-15T09:12:53.100Z,68.92
2024-01-15T09:15:23.162Z,67.81
2024-01-15T09:17:51.695Z,66.50
2024-01-15T09:20:20.052Z,64.98
2024-01-15T09:22:48.315Z,63.84
2024-01-15T09:25:16.701Z,62.94
2024-01-15T09:27:48.240Z,59.45
2024-01-15T09:30:17.031Z,57.62
2024-01-15T09:32:45.404Z,56.42
2024-01-15T09:35:13.824Z,55.65
2024-01-15T09:37:47.490Z,54.28
2024-01-15T09:40:17.621Z,53.70
2024-01-15T09:42:47.631Z,55.14
2024-01-15T09:45:16.819Z,57.64
2024-01-15T09:47:46.822Z,59.46
2024-01-15T09:50:18.644Z,61.60
2024-01-15T09:52:48.145Z,63.19
2024-01-15T09:55:17.623Z,63.18
2024-01-15T09:57:47.671Z,61.68
2024-01-15T10:00:19.524Z,60.20
2024-01-15T10:02:48.149Z,58.73
2024-01-15T10:05:17.400Z,58.32
2024-01-15T10:07:47.167Z,58.32
2024-01-15T10:10:15.647Z,57.43
2024-01-15T10:12:43.925Z,55.59
2024-01-15T10:15:13.387Z,54.00
2024-01-15T10:17:43.021Z,53.87
2024-01-15T10:20:12.860Z,51.28
2024-01-15T10:22:45.154Z,49.00
2024-01-15T10:25:15.286Z,46.99
2024-01-15T10:27:43.620Z,44.55
2024-01-15T10:30:14.731Z,46.15
2024-01-15T10:32:43.313Z,46.34
2024-01-15T10:35:12.373Z,47.29
2024-01-15T10:37:42.947Z,49.73
2024-01-15T10:40:11.695Z,52.16
2024-01-15T10:42:40.113Z,54.84
2024-01-15T10:45:10.389Z,57.42
2024-01-15T10:47:39.410Z,60.41
2024-01-15T10:50:08.887Z,64.07
2024-01-15T10:52:38.829Z,66.72
2024-01-15T10:55:14.612Z,68.23
2024-01-15T10:57:47.311Z,69.51
2024-01-15T11:00:16.610Z,70.74
2024-01-15T11:02:46.190Z,71.22
2024-01-15T11:05:14.829Z,71.56
2024-01-15T11:07:44.158Z,70.18
2024-01-15T11:10:42.626Z,69.80
2024-01-15T11:13:15.313Z,69.24
2024-01-15T11:16:02.229Z,69.02
2024-01-15T11:18:33.350Z,68.12
2024-01-15T11:21:17.401Z,67.43
2024-01-15T11:23:58.385Z,67.52
2024-01-15T11:26:32.909Z,67.25
2024-01-15T11:29:04.864Z,66.92
2024-01-15T11:31:48.731Z,67.18
2024-01-15T11:34:17.392Z,67.65
2024-01-15T11:36:55.258Z,67.70
2024-01-15T11:39:33.564Z,67.63
2024-01-15T11:42:04.660Z,67.38
2024-01-15T11:44:32.971Z,67.45
2024-01-15T11:47:04.094Z,67.33
2024-01-15T11:49:51.054Z,66.56
2024-01-15T11:52:22.300Z,66.42
2024-01-15T11:55:02.723Z,65.41
2024-01-15T11:57:41.460Z,64.78
2024-01-15T12:00:13.497Z,63.43
2024-01-15T12:02:45.646Z,62.70
2024-01-15T12:05:18.753Z,62.88
2024-01-15T12:07:51.403Z,62.77
2024-01-15T12:10:21.950Z,62.71
2024-01-15T12:12:53.238Z,62.33
2024-01-15T12:15:21.654Z,62.68
2024-01-15T12:17:50.516Z,62.86
2024-01-15T12:20:19.639Z,63.05
2024-01-15T12:22:56.961Z,63.51
2024-01-15T12:25:30.952Z,63.76
2024-01-15T12:28:01.297Z,63.94
2024-01-15T12:30:30.934Z,63.96
2024-01-15T12:33:02.185Z,64.48
2024-01-15T12:40:38.924Z,65.67
2024-01-15T12:43:08.345Z,66.03
2024-01-15T12:45:39.161Z,66.07
2024-01-15T12:48:08.284Z,66.48
2024-01-15T12:50:37.107Z,66.80
2024-01-15T12:53:05.599Z,66.83
2024-01-15T12:55:35.627Z,66.94
2024-01-15T12:58:04.413Z,66.97
2024-01-15T13:00:35.935Z,66.76
2024-01-15T13:03:05.047Z,66.51
2024-01-15T13:05:35.416Z,66.40
2024-01-15T13:08:04.734Z,66.25
2024-01-15T13:10:33.173Z,65.87
2024-01-15T13:13:01.805Z,65.16
2024-01-15T13:15:30.223Z,64.78
2024-01-15T13:17:59.019Z,64.55
2024-01-15T13:20:27.321Z,64.71
2024-01-15T13:22:56.474Z,64.64
2024-01-15T13:25:26.065Z,64.42
2024-01-15T13:27:54.583Z,64.61
2024-01-15T13:30:22.970Z,64.63
2024-01-15T13:32:51.839Z,64.86
2024-01-15T13:35:20.426Z,65.01
2024-01-15T13:37:48.807Z,65.39
2024-01-15T13:40:21.334Z,66.20
2024-01-15T13:42:50.168Z,67.38
2024-01-15T13:45:18.718Z,68.06
2024-01-15T13:47:47.332Z,68.73
2024-01-15T13:50:15.982Z,69.34
2024-01-15T13:52:44.354Z,69.96
2024-01-15T13:55:12.797Z,70.52
2024-01-15T13:57:41.246Z,70.98
2024-01-15T14:00:13.549Z,71.49
2024-01-15T14:02:42.649Z,71.86
2024-01-15T14:05:13.978Z,72.41
2024-01-15T14:07:45.312Z,72.42
2024-01-15T14:10:13.684Z,72.32
2024-01-15T14:12:42.826Z,72.33
2024-01-15T14:15:11.211Z,72.31
2024-01-15T14:17:39.752Z,72.36
2024-01-15T14:20:10.897Z,72.53
2024-01-15T14:22:39.484Z,72.66
2024-01-15T14:25:08.826Z,72.74
2024-01-15T14:27:37.695Z,72.76
2024-01-15T14:30:08.695Z,72.49
2024-01-15T14:32:37.549Z,72.16
2024-01-15T14:35:07.195Z,71.80
2024-01-15T14:37:35.727Z,71.57
2024-01-15T14:40:05.380Z,71.45
2024-01-15T14:42:33.869Z,71.31
2024-01-15T14:45:04.678Z,71.26
2024-01-15T14:47:37.901Z,71.16
2024-01-15T14:50:11.331Z,71.03
2024-01-15T14:52:43.639Z,70.73
2024-01-15T14:55:12.723Z,70.56
2024-01-15T14:57:41.619Z,70.38
2024-01-15T15:00:10.360Z,70.08
2024-01-15T15:02:38.948Z,70.05
2024-01-15T15:05:08.280Z,69.82
2024-01-15T15:07:37.562Z,69.50
2024-01-15T15:10:08.005Z,69.34
2024-01-15T15:12:36.863Z,69.19
2024-01-15T15:30:24.232Z,68.44
2024-01-15T15:32:53.843Z,68.39
2024-01-15T15:35:23.219Z,68.22
2024-01-15T15:37:52.414Z,68.11
2024-01-15T15:40:21.599Z,67.90
2024-01-15T15:42:49.968Z,67.82
2024-01-15T15:45:18.338Z,67.71
2024-01-15T15:47:47.049Z,67.42
2024-01-15T15:50:15.706Z,67.20
2024-01-15T15:52:44.527Z,67.11
2024-01-15T15:55:12.946Z,66.81
2024-01-15T15:57:41.661Z,66.74
2024-01-15T16:00:10.592Z,66.67
2024-01-15T16:02:41.884Z,66.66
2024-01-15T16:05:11.427Z,66.40
2024-01-15T16:07:40.132Z,66.21
2024-01-15T16:10:09.028Z,66.08
2024-01-15T16:12:37.561Z,66.08
2024-01-15T16:15:19.038Z,65.95
2024-01-15T16:23:17.426Z,65.91
2024-01-15T16:23:32.075Z,65.93
2024-01-15T16:24:05.191Z,66.01
2024-01-15T16:26:18.255Z,66.17
2024-01-15T16:28:47.088Z,66.10
2024-01-15T16:31:15.599Z,66.02
2024-01-15T16:33:47.855Z,66.11
2024-01-15T16:36:21.796Z,66.22
2024-01-15T16:38:50.400Z,66.41
2024-01-15T16:41:19.069Z,66.30
2024-01-15T16:43:49.244Z,66.27
2024-01-15T16:46:17.921Z,66.11
2024-01-15T16:48:46.272Z,66.09
2024-01-15T16:52:08.264Z,66.12
2024-01-15T16:54:36.974Z,66.25
2024-01-15T16:57:05.370Z,66.34
2024-01-15T16:59:35.862Z,66.49
2024-01-15T17:02:04.741Z,66.63
2024-01-15T17:04:33.074Z,66.68
2024-01-15T17:18:27.717Z,67.38
2024-01-15T17:20:56.372Z,67.53
2024-01-15T17:23:24.713Z,67.62
2024-01-15T17:25:53.297Z,67.94
2024-01-15T17:28:24.473Z,68.24
2024-01-15T17:30:53.689Z,68.36
2024-01-15T17:33:22.073Z,68.46
2024-01-15T17:35:55.396Z,68.49
2024-01-15T17:38:25.192Z,68.53
2024-01-15T17:40:53.609Z,68.54
2024-01-15T17:43:21.899Z,68.60
2024-01-15T17:45:50.492Z,68.46
2024-01-15T17:48:18.957Z,68.53
2024-01-15T17:50:47.690Z,68.54
2024-01-15T17:53:16.601Z,68.70
2024-01-15T17:55:45.223Z,68.93
2024-01-15T17:58:13.491Z,69.11
2024-01-15T18:00:42.489Z,68.99
2024-01-15T18:03:10.855Z,68.88
2024-01-15T18:05:39.667Z,68.84
2024-01-15T18:08:08.257Z,68.84
2024-01-15T18:10:36.572Z,68.72
2024-01-15T18:13:06.603Z,68.59
2024-01-15T18:15:35.270Z,68.42
2024-01-15T18:18:05.058Z,68.11
2024-01-15T18:20:33.767Z,68.03
2024-01-15T18:23:02.304Z,67.68
2024-01-15T18:25:31.692Z,67.56
2024-01-15T18:28:00.728Z,67.21
2024-01-15T18:30:29.215Z,67.05
2024-01-15T18:32:57.590Z,66.95
2024-01-15T18:35:27.454Z,66.73
2024-01-15T18:37:56.114Z,66.81
2024-01-15T18:40:24.886Z,66.79
2024-01-15T18:42:53.141Z,66.63
2024-01-15T18:45:21.473Z,66.67
2024-01-15T18:47:49.771Z,66.87
2024-01-15T18:50:19.251Z,67.10
2024-01-15T18:52:48.217Z,67.23
2024-01-15T18:55:18.551Z,67.06
2024-01-15T18:57:47.179Z,67.14
2024-01-15T19:00:16.675Z,66.71
2024-01-15T19:17:51.435Z,66.84
2024-01-15T19:20:19.910Z,66.61
2024-01-15T19:22:48.551Z,66.33
2024-01-15T19:25:17.150Z,66.18
2024-01-15T19:27:47.431Z,66.00
2024-01-15T19:30:17.441Z,65.67
2024-01-15T19:32:46.758Z,65.82
2024-01-15T19:35:15.817Z,65.93
2024-01-15T19:37:44.381Z,65.84
2024-01-15T19:40:13.199Z,65.67
2024-01-15T19:42:41.787Z,65.69
2024-01-15T19:45:10.374Z,65.60
2024-01-15T19:47:41.492Z,65.64
2024-01-15T19:50:10.401Z,65.57
2024-01-15T19:52:38.944Z,65.43
2024-01-15T19:55:07.738Z,64.87
2024-01-15T19:57:36.079Z,64.73
2024-01-15T20:00:05.296Z,64.85
2024-01-15T20:02:34.495Z,64.90
2024-01-15T20:05:02.920Z,64.93
2024-01-15T20:07:31.656Z,64.89
2024-01-15T20:09:59.921Z,65.01
2024-01-15T20:12:28.313Z,64.85
2024-01-15T20:14:56.792Z,64.81
2024-01-15T20:17:26.342Z,64.91
2024-01-15T20:19:55.627Z,64.88
2024-01-15T20:22:24.178Z,65.03
2024-01-15T20:24:52.589Z,65.06
2024-01-15T20:27:21.310Z,65.06
2024-01-15T20:29:49.720Z,65.00
2024-01-15T20:32:19.791Z,65.21
2024-01-15T20:34:48.190Z,65.08
2024-01-15T20:37:16.852Z,65.01
2024-01-15T20:39:45.190Z,64.89
2024-01-15T20:42:13.587Z,64.94
2024-01-15T20:44:42.100Z,64.79
2024-01-15T20:47:11.640Z,64.57
2024-01-15T20:49:40.611Z,64.31
2024-01-15T20:52:09.100Z,64.14
2024-01-15T20:54:37.401Z,63.97
2024-01-15T20:57:05.691Z,63.77
2024-01-15T20:59:34.267Z,63.56
2024-01-15T21:02:02.617Z,63.16
2024-01-15T21:04:30.959Z,63.08
2024-01-15T21:07:00.252Z,62.94
2024-01-15T21:09:28.691Z,62.51
2024-01-15T21:11:56.954Z,62.19
2024-01-15T21:14:25.471Z,61.88
2024-01-15T21:16:53.852Z,61.51
2024-01-15T21:19:22.672Z,61.61
2024-01-15T21:21:51.134Z,61.57
2024-01-15T21:24:23.650Z,61.32
2024-01-15T21:26:51.895Z,61.30
2024-01-15T21:29:20.717Z,61.16
2024-01-15T21:31:49.171Z,60.89
2024-01-15T21:34:21.821Z,60.76
2024-01-15T21:36:51.249Z,60.69
2024-01-15T21:39:19.538Z,60.42
2024-01-15T21:41:48.256Z,59.95
2024-01-15T21:44:17.440Z,60.04
2024-01-15T21:46:45.735Z,59.97
2024-01-15T21:49:14.176Z,60.05
2024-01-15T21:51:42.471Z,60.02
2024-01-15T21:54:10.744Z,59.69
2024-01-15T21:56:39.260Z,59.89
2024-01-15T21:59:07.871Z,59.97
2024-01-15T22:01:36.262Z,59.80
2024-01-15T22:04:08.505Z,59.26
2024-01-15T22:06:37.260Z,58.48
2024-01-15T22:09:05.746Z,58.39
2024-01-15T22:11:34.247Z,58.42
2024-01-15T22:14:03.254Z,58.43
2024-01-15T22:16:31.886Z,58.73
2024-01-15T22:19:02.708Z,58.82
2024-01-15T22:21:31.639Z,58.94
2024-01-15T22:24:00.419Z,59.01
2024-01-15T22:26:28.887Z,59.31
2024-01-15T22:28:57.398Z,59.66
2024-01-15T22:31:25.829Z,59.86
2024-01-15T22:33:54.543Z,59.97
2024-01-15T22:36:23.165Z,59.45
2024-01-15T22:38:51.620Z,59.40
2024-01-15T22:41:19.905Z,59.48
2024-01-15T22:43:48.725Z,59.36
2024-01-15T22:46:17.332Z,59.34
2024-01-15T22:48:45.839Z,59.50
2024-01-15T22:51:14.109Z,59.51
2024-01-15T22:53:43.617Z,59.53
2024-01-15T22:56:12.260Z,59.33
2024-01-15T22:58:40.604Z,59.32
2024-01-15T23:01:09.169Z,59.26
2024-01-15T23:03:37.545Z,59.17
2024-01-15T23:06:05.973Z,58.90
2024-01-15T23:08:34.573Z,59.05
2024-01-15T23:11:03.052Z,59.03
2024-01-15T23:13:31.345Z,59.21
2024-01-15T23:15:59.611Z,59.35
2024-01-15T23:18:27.996Z,59.34
2024-01-15T23:20:56.305Z,59.37
2024-01-15T23:23:24.692Z,59.22
2024-01-15T23:25:53.249Z,59.29
2024-01-15T23:28:21.693Z,59.22
2024-01-15T23:30:49.901Z,59.24
2024-01-15T23:33:18.504Z,59.27
2024-01-15T23:35:46.904Z,59.22
2024-01-15T23:38:15.351Z,59.01
2024-01-15T23:40:43.618Z,58.93
2024-01-15T23:43:12.175Z,58.97
2024-01-15T23:45:41.861Z,58.97
2024-01-15T23:48:10.339Z,59.04
2024-01-15T23:50:38.730Z,59.02
2024-01-15T23:53:07.133Z,59.02
2024-01-15T23:55:35.808Z,59.10
2024-01-15T23:58:04.199Z,59.07
